sensor_id;sensor_type;location;lat;lon;timestamp;temperature;humidity
7648;DHT22;3866;48.020;11.720;2024-01-30T00:00:07;-1.30;99.90
7648;DHT22;3866;48.020;11.720;2024-01-30T00:02:34;-1.30;99.90
7648;DHT22;3866;48.020;11.720;2024-01-30T00:05:01;-1.40;99.90
7648;DHT22;3866;48.020;11.720;2024-01-30T00:07:30;-1.40;99.90
7648;DHT22;3866;48.020;11.720;2024-01-30T00:09:58;-1.40;99.90
7648;DHT22;3866;48.020;11.720;2024-01-30T00:12:25;-1.50;99.90
7648;DHT22;3866;48.020;11.720;2024-01-30T00:14:52;-1.50;99.90
7648;DHT22;3866;48.020;11.720;2024-01-30T00:17:21;-1.50;99.90
7648;DHT22;3866;48.020;11.720;2024-01-30T00:19:48;-1.40;99.90
7648;DHT22;3866;48.020;11.720;2024-01-30T00:22:14;-1.40;99.90
7648;DHT22;3866;48.020;11.720;2024-01-30T00:24:41;-1.40;99.90
7648;DHT22;3866;48.020;11.720;2024-01-30T00:27:08;-1.30;99.90
7648;DHT22;3866;48.020;11.720;2024-01-30T00:29:35;-1.40;99.90
7648;DHT22;3866;48.020;11.720;2024-01-30T00:32:02;-1.40;99.90
7648;DHT22;3866;48.020;11.720;2024-01-30T00:34:30;-1.40;99.90
7648;DHT22;3866;48.020;11.720;2024-01-30T00:36:57;-1.40;99.90
7648;DHT22;3866;48.020;11.720;2024-01-30T00:39:24;-1.60;99.90
7648;DHT22;3866;48.020;11.720;2024-01-30T00:41:51;-1.60;99.90
7648;DHT22;3866;48.020;11.720;2024-01-30T00:44:17;-1.60;99.90
7648;DHT22;3866;48.020;11.720;2024-01-30T00:46:44;-1.70;99.90
7648;DHT22;3866;48.020;11.720;2024-01-30T00:49:11;-1.70;99.90
7648;DHT22;3866;48.020;11.720;2024-01-30T00:51:39;-1.70;99.90
7648;DHT22;3866;48.020;11.720;2024-01-30T00:54:06;-1.70;99.90
7648;DHT22;3866;48.020;11.720;2024-01-30T00:56:33;-1.70;99.90
7648;DHT22;3866;48.020;11.720;2024-01-30T00:59:00;-1.50;99.90
7648;DHT22;3866;48.020;11.720;2024-01-30T01:01:27;-1.60;99.90
7648;DHT22;3866;48.020;11.720;2024-01-30T01:03:54;-1.60;99.90
7648;DHT22;3866;48.020;11.720;2024-01-30T01:06:21;-1.70;99.90
7648;DHT22;3866;48.020;11.720;2024-01-30T01:08:49;-1.70;99.90
7648;DHT22;3866;48.020;11.720;2024-01-30T01:11:16;-1.70;99.90
7648;DHT22;3866;48.020;11.720;2024-01-30T01:13:43;-1.70;99.90
7648;DHT22;3866;48.020;11.720;2024-01-30T01:16:09;-1.70;99.90
7648;DHT22;3866;48.020;11.720;2024-01-30T01:18:36;-1.70;99.90
7648;DHT22;3866;48.020;11.720;2024-01-30T01:21:03;-1.70;99.90
7648;DHT22;3866;48.020;11.720;2024-01-30T01:23:30;-1.70;99.90
7648;DHT22;3866;48.020;11.720;2024-01-30T01:25:58;-1.70;99.90
7648;DHT22;3866;48.020;11.720;2024-01-30T01:28:26;-1.60;99.90
7648;DHT22;3866;48.020;11.720;2024-01-30T01:30:53;-1.70;99.90
7648;DHT22;3866;48.020;11.720;2024-01-30T01:33:24;-1.70;99.90
7648;DHT22;3866;48.020;11.720;2024-01-30T01:35:51;-1.70;99.90
7648;DHT22;3866;48.020;11.720;2024-01-30T01:38:19;-1.70;99.90
7648;DHT22;3866;48.020;11.720;2024-01-30T01:40:45;-1.70;99.90
7648;DHT22;3866;48.020;11.720;2024-01-30T01:43:14;-1.80;99.90
7648;DHT22;3866;48.020;11.720;2024-01-30T01:45:41;-1.90;99.90
7648;DHT22;3866;48.020;11.720;2024-01-30T01:48:07;-1.80;99.90
7648;DHT22;3866;48.020;11.720;2024-01-30T01:50:36;-1.90;99.90
7648;DHT22;3866;48.020;11.720;2024-01-30T01:53:04;-1.90;99.90
7648;DHT22;3866;48.020;11.720;2024-01-30T01:55:31;-2.00;99.90
7648;DHT22;3866;48.020;11.720;2024-01-30T01:57:58;-2.00;99.90
7648;DHT22;3866;48.020;11.720;2024-01-30T02:00:27;-1.90;99.90
7648;DHT22;3866;48.020;11.720;2024-01-30T02:02:54;-2.00;99.90
7648;DHT22;3866;48.020;11.720;2024-01-30T02:05:21;-2.00;99.90
7648;DHT22;3866;48.020;11.720;2024-01-30T02:07:50;-2.00;99.90
7648;DHT22;3866;48.020;11.720;2024-01-30T02:10:17;-1.90;99.90
7648;DHT22;3866;48.020;11.720;2024-01-30T02:12:44;-1.90;99.90
7648;DHT22;3866;48.020;11.720;2024-01-30T02:15:13;-1.80;99.90
7648;DHT22;3866;48.020;11.720;2024-01-30T02:17:41;-1.80;99.90
7648;DHT22;3866;48.020;11.720;2024-01-30T02:20:09;-1.70;99.90
7648;DHT22;3866;48.020;11.720;2024-01-30T02:22:38;-1.70;99.90
7648;DHT22;3866;48.020;11.720;2024-01-30T02:25:06;-1.70;99.90
7648;DHT22;3866;48.020;11.720;2024-01-30T02:27:33;-1.70;99.90
7648;DHT22;3866;48.020;11.720;2024-01-30T02:30:00;-1.80;99.90
7648;DHT22;3866;48.020;11.720;2024-01-30T02:32:26;-1.70;99.90
7648;DHT22;3866;48.020;11.720;2024-01-30T02:34:53;-1.70;99.90
7648;DHT22;3866;48.020;11.720;2024-01-30T02:37:20;-1.70;99.90
7648;DHT22;3866;48.020;11.720;2024-01-30T02:39:48;-1.80;99.90
7648;DHT22;3866;48.020;11.720;2024-01-30T02:42:15;-1.80;99.90
7648;DHT22;3866;48.020;11.720;2024-01-30T02:44:42;-1.80;99.90
7648;DHT22;3866;48.020;11.720;2024-01-30T02:47:09;-1.80;99.90
7648;DHT22;3866;48.020;11.720;2024-01-30T02:49:36;-1.80;99.90
7648;DHT22;3866;48.020;11.720;2024-01-30T02:52:03;-1.70;99.90
7648;DHT22;3866;48.020;11.720;2024-01-30T02:54:30;-1.80;99.90
7648;DHT22;3866;48.020;11.720;2024-01-30T02:56:58;-1.80;99.90
7648;DHT22;3866;48.020;11.720;2024-01-30T02:59:25;-1.90;99.90
7648;DHT22;3866;48.020;11.720;2024-01-30T03:01:52;-1.90;99.90
7648;DHT22;3866;48.020;11.720;2024-01-30T03:04:19;-1.90;99.90
7648;DHT22;3866;48.020;11.720;2024-01-30T03:06:45;-2.00;99.90
7648;DHT22;3866;48.020;11.720;2024-01-30T03:09:13;-2.00;99.90
7648;DHT22;3866;48.020;11.720;2024-01-30T03:11:40;-2.00;99.90
7648;DHT22;3866;48.020;11.720;2024-01-30T03:14:08;-2.00;99.90
7648;DHT22;3866;48.020;11.720;2024-01-30T03:16:36;-1.90;99.90
7648;DHT22;3866;48.020;11.720;2024-01-30T03:19:04;-2.00;99.90
7648;DHT22;3866;48.020;11.720;2024-01-30T03:21:30;-2.00;99.90
7648;DHT22;3866;48.020;11.720;2024-01-30T03:23:57;-2.00;99.90
7648;DHT22;3866;48.020;11.720;2024-01-30T03:26:25;-2.00;99.90
7648;DHT22;3866;48.020;11.720;2024-01-30T03:28:52;-2.00;99.90
7648;DHT22;3866;48.020;11.720;2024-01-30T03:31:20;-1.90;99.90
7648;DHT22;3866;48.020;11.720;2024-01-30T03:33:47;-1.90;99.90
7648;DHT22;3866;48.020;11.720;2024-01-30T03:36:15;-2.00;99.90
7648;DHT22;3866;48.020;11.720;2024-01-30T03:38:42;-2.00;99.90
7648;DHT22;3866;48.020;11.720;2024-01-30T03:41:09;-2.00;99.90
7648;DHT22;3866;48.020;11.720;2024-01-30T03:43:36;-1.90;99.90
7648;DHT22;3866;48.020;11.720;2024-01-30T03:46:03;-2.00;99.90
7648;DHT22;3866;48.020;11.720;2024-01-30T03:48:32;-2.00;99.90
7648;DHT22;3866;48.020;11.720;2024-01-30T03:50:59;-2.00;99.90
7648;DHT22;3866;48.020;11.720;2024-01-30T03:53:26;-2.00;99.90
7648;DHT22;3866;48.020;11.720;2024-01-30T03:55:52;-2.00;99.90
7648;DHT22;3866;48.020;11.720;2024-01-30T03:58:19;-2.00;99.90
7648;DHT22;3866;48.020;11.720;2024-01-30T04:00:46;-2.00;99.90
7648;DHT22;3866;48.020;11.720;2024-01-30T04:03:14;-2.10;99.90
7648;DHT22;3866;48.020;11.720;2024-01-30T04:05:42;-2.10;99.90
7648;DHT22;3866;48.020;11.720;2024-01-30T04:08:09;-2.10;99.90
7648;DHT22;3866;48.020;11.720;2024-01-30T04:10:36;-2.10;99.90
7648;DHT22;3866;48.020;11.720;2024-01-30T04:13:03;-2.10;99.90
7648;DHT22;3866;48.020;11.720;2024-01-30T04:15:29;-2.00;99.90
7648;DHT22;3866;48.020;11.720;2024-01-30T04:17:57;-1.90;99.90
7648;DHT22;3866;48.020;11.720;2024-01-30T04:20:24;-1.90;99.90
7648;DHT22;3866;48.020;11.720;2024-01-30T04:22:53;-1.90;99.90
7648;DHT22;3866;48.020;11.720;2024-01-30T04:25:20;-1.90;99.90
7648;DHT22;3866;48.020;11.720;2024-01-30T04:27:46;-1.90;99.90
7648;DHT22;3866;48.020;11.720;2024-01-30T04:30:13;-2.00;99.90
7648;DHT22;3866;48.020;11.720;2024-01-30T04:32:41;-1.90;99.90
7648;DHT22;3866;48.020;11.720;2024-01-30T04:35:08;-2.00;99.90
7648;DHT22;3866;48.020;11.720;2024-01-30T04:37:34;-2.00;99.90
7648;DHT22;3866;48.020;11.720;2024-01-30T04:40:03;-2.00;99.90
7648;DHT22;3866;48.020;11.720;2024-01-30T04:42:30;-2.00;99.90
7648;DHT22;3866;48.020;11.720;2024-01-30T04:44:57;-2.00;99.90
7648;DHT22;3866;48.020;11.720;2024-01-30T04:47:24;-2.00;99.90
7648;DHT22;3866;48.020;11.720;2024-01-30T04:49:51;-2.00;99.90
7648;DHT22;3866;48.020;11.720;2024-01-30T04:52:18;-2.00;99.90
7648;DHT22;3866;48.020;11.720;2024-01-30T04:54:46;-2.10;99.90
7648;DHT22;3866;48.020;11.720;2024-01-30T04:57:14;-2.10;99.90
7648;DHT22;3866;48.020;11.720;2024-01-30T04:59:41;-2.20;99.90
7648;DHT22;3866;48.020;11.720;2024-01-30T05:02:08;-2.10;99.90
7648;DHT22;3866;48.020;11.720;2024-01-30T05:04:35;-2.10;99.90
7648;DHT22;3866;48.020;11.720;2024-01-30T05:07:02;-2.00;99.90
7648;DHT22;3866;48.020;11.720;2024-01-30T05:09:29;-2.00;99.90
7648;DHT22;3866;48.020;11.720;2024-01-30T05:11:55;-1.90;99.90
7648;DHT22;3866;48.020;11.720;2024-01-30T05:14:24;-1.90;99.90
7648;DHT22;3866;48.020;11.720;2024-01-30T05:16:51;-1.80;99.90
7648;DHT22;3866;48.020;11.720;2024-01-30T05:19:18;-1.80;99.90
7648;DHT22;3866;48.020;11.720;2024-01-30T05:21:45;-1.70;99.90
7648;DHT22;3866;48.020;11.720;2024-01-30T05:24:12;-1.70;99.90
7648;DHT22;3866;48.020;11.720;2024-01-30T05:26:39;-1.70;99.90
7648;DHT22;3866;48.020;11.720;2024-01-30T05:29:06;-1.70;99.90
7648;DHT22;3866;48.020;11.720;2024-01-30T05:31:35;-1.70;99.90
7648;DHT22;3866;48.020;11.720;2024-01-30T05:34:02;-1.70;99.90
7648;DHT22;3866;48.020;11.720;2024-01-30T05:36:29;-1.60;99.90
7648;DHT22;3866;48.020;11.720;2024-01-30T05:38:56;-1.70;99.90
7648;DHT22;3866;48.020;11.720;2024-01-30T05:41:23;-1.60;99.90
7648;DHT22;3866;48.020;11.720;2024-01-30T05:43:49;-1.50;99.90
7648;DHT22;3866;48.020;11.720;2024-01-30T05:46:16;-1.50;99.90
7648;DHT22;3866;48.020;11.720;2024-01-30T05:48:45;-1.40;99.90
7648;DHT22;3866;48.020;11.720;2024-01-30T05:51:12;-1.40;99.90
7648;DHT22;3866;48.020;11.720;2024-01-30T05:53:38;-1.40;99.90
7648;DHT22;3866;48.020;11.720;2024-01-30T05:56:06;-1.50;99.90
7648;DHT22;3866;48.020;11.720;2024-01-30T05:58:33;-1.50;99.90
7648;DHT22;3866;48.020;11.720;2024-01-30T06:01:00;-1.40;99.90
7648;DHT22;3866;48.020;11.720;2024-01-30T06:03:26;-1.30;99.90
7648;DHT22;3866;48.020;11.720;2024-01-30T06:05:55;-1.30;99.90
7648;DHT22;3866;48.020;11.720;2024-01-30T06:08:21;-1.30;99.90
7648;DHT22;3866;48.020;11.720;2024-01-30T06:10:48;-1.40;99.90
7648;DHT22;3866;48.020;11.720;2024-01-30T06:13:15;-1.30;99.90
7648;DHT22;3866;48.020;11.720;2024-01-30T06:15:42;-1.30;99.90
7648;DHT22;3866;48.020;11.720;2024-01-30T06:18:09;-1.30;99.90
7648;DHT22;3866;48.020;11.720;2024-01-30T06:20:36;-1.30;99.90
7648;DHT22;3866;48.020;11.720;2024-01-30T06:23:04;-1.30;99.90
7648;DHT22;3866;48.020;11.720;2024-01-30T06:25:31;-1.30;99.90
7648;DHT22;3866;48.020;11.720;2024-01-30T06:27:58;-1.30;99.90
7648;DHT22;3866;48.020;11.720;2024-01-30T06:30:25;-1.30;99.90
7648;DHT22;3866;48.020;11.720;2024-01-30T06:32:52;-1.40;99.90
7648;DHT22;3866;48.020;11.720;2024-01-30T06:35:19;-1.30;99.90
7648;DHT22;3866;48.020;11.720;2024-01-30T06:37:47;-1.40;99.90
7648;DHT22;3866;48.020;11.720;2024-01-30T06:40:15;-1.40;99.90
7648;DHT22;3866;48.020;11.720;2024-01-30T06:42:42;-1.50;99.90
7648;DHT22;3866;48.020;11.720;2024-01-30T06:45:09;-1.50;99.90
7648;DHT22;3866;48.020;11.720;2024-01-30T06:47:36;-1.60;99.90
7648;DHT22;3866;48.020;11.720;2024-01-30T06:50:03;-1.60;99.90
7648;DHT22;3866;48.020;11.720;2024-01-30T06:52:30;-1.60;99.90
7648;DHT22;3866;48.020;11.720;2024-01-30T06:54:57;-1.60;99.90
7648;DHT22;3866;48.020;11.720;2024-01-30T06:57:25;-1.50;99.90
7648;DHT22;3866;48.020;11.720;2024-01-30T06:59:54;-1.50;99.90
7648;DHT22;3866;48.020;11.720;2024-01-30T07:02:21;-1.40;99.90
7648;DHT22;3866;48.020;11.720;2024-01-30T07:04:48;-1.40;99.90
7648;DHT22;3866;48.020;11.720;2024-01-30T07:07:16;-1.30;99.90
7648;DHT22;3866;48.020;11.720;2024-01-30T07:09:42;-1.20;99.90
7648;DHT22;3866;48.020;11.720;2024-01-30T07:12:10;-1.10;99.90
7648;DHT22;3866;48.020;11.720;2024-01-30T07:14:38;-1.10;99.90
7648;DHT22;3866;48.020;11.720;2024-01-30T07:17:05;-1.00;99.90
7648;DHT22;3866;48.020;11.720;2024-01-30T07:19:33;-1.00;99.90
7648;DHT22;3866;48.020;11.720;2024-01-30T07:22:00;-1.00;99.90
7648;DHT22;3866;48.020;11.720;2024-01-30T07:24:27;-1.00;99.90
7648;DHT22;3866;48.020;11.720;2024-01-30T07:26:54;-1.00;99.90
7648;DHT22;3866;48.020;11.720;2024-01-30T07:29:21;-0.90;99.90
7648;DHT22;3866;48.020;11.720;2024-01-30T07:31:49;-0.90;99.90
7648;DHT22;3866;48.020;11.720;2024-01-30T07:34:16;-0.80;99.90
7648;DHT22;3866;48.020;11.720;2024-01-30T07:36:43;-0.70;99.90
7648;DHT22;3866;48.020;11.720;2024-01-30T07:39:10;-0.70;99.90
7648;DHT22;3866;48.020;11.720;2024-01-30T07:41:37;-0.60;99.90
7648;DHT22;3866;48.020;11.720;2024-01-30T07:44:04;-0.50;99.90
7648;DHT22;3866;48.020;11.720;2024-01-30T07:46:30;-0.40;99.90
7648;DHT22;3866;48.020;11.720;2024-01-30T07:48:59;-0.10;99.90
7648;DHT22;3866;48.020;11.720;2024-01-30T07:51:26;0.20;99.90
7648;DHT22;3866;48.020;11.720;2024-01-30T07:53:54;0.70;99.90
7648;DHT22;3866;48.020;11.720;2024-01-30T07:56:20;1.80;99.90
7648;DHT22;3866;48.020;11.720;2024-01-30T07:58:47;3.00;99.90
7648;DHT22;3866;48.020;11.720;2024-01-30T08:01:15;4.20;99.90
7648;DHT22;3866;48.020;11.720;2024-01-30T08:03:41;5.60;99.90
7648;DHT22;3866;48.020;11.720;2024-01-30T08:06:10;6.30;99.90
7648;DHT22;3866;48.020;11.720;2024-01-30T08:08:37;7.50;99.90
7648;DHT22;3866;48.020;11.720;2024-01-30T08:11:04;8.70;99.90
7648;DHT22;3866;48.020;11.720;2024-01-30T08:13:31;9.40;99.90
7648;DHT22;3866;48.020;11.720;2024-01-30T08:15:58;10.10;99.90
7648;DHT22;3866;48.020;11.720;2024-01-30T08:18:24;10.20;99.90
7648;DHT22;3866;48.020;11.720;2024-01-30T08:20:52;9.50;99.90
7648;DHT22;3866;48.020;11.720;2024-01-30T08:23:20;8.90;99.90
7648;DHT22;3866;48.020;11.720;2024-01-30T08:25:58;9.60;99.90
7648;DHT22;3866;48.020;11.720;2024-01-30T08:28:25;9.60;99.90
7648;DHT22;3866;48.020;11.720;2024-01-30T08:30:52;8.80;99.90
7648;DHT22;3866;48.020;11.720;2024-01-30T08:33:19;9.70;99.90
7648;DHT22;3866;48.020;11.720;2024-01-30T08:35:46;9.30;99.90
7648;DHT22;3866;48.020;11.720;2024-01-30T08:38:13;9.10;99.90
7648;DHT22;3866;48.020;11.720;2024-01-30T08:40:41;9.80;99.90
7648;DHT22;3866;48.020;11.720;2024-01-30T08:43:08;12.90;99.90
7648;DHT22;3866;48.020;11.720;2024-01-30T08:45:35;15.00;99.90
7648;DHT22;3866;48.020;11.720;2024-01-30T08:48:03;13.30;99.90
7648;DHT22;3866;48.020;11.720;2024-01-30T08:50:29;11.90;99.90
7648;DHT22;3866;48.020;11.720;2024-01-30T08:52:56;10.90;99.90
7648;DHT22;3866;48.020;11.720;2024-01-30T08:55:23;11.20;99.90
7648;DHT22;3866;48.020;11.720;2024-01-30T08:57:51;10.80;99.90
7648;DHT22;3866;48.020;11.720;2024-01-30T09:00:19;11.50;99.90
7648;DHT22;3866;48.020;11.720;2024-01-30T09:02:45;13.30;99.90
7648;DHT22;3866;48.020;11.720;2024-01-30T09:05:12;14.40;99.90
7648;DHT22;3866;48.020;11.720;2024-01-30T09:07:39;11.90;99.90
7648;DHT22;3866;48.020;11.720;2024-01-30T09:10:07;12.30;99.90
7648;DHT22;3866;48.020;11.720;2024-01-30T09:12:33;12.00;99.90
7648;DHT22;3866;48.020;11.720;2024-01-30T09:15:02;11.40;99.90
7648;DHT22;3866;48.020;11.720;2024-01-30T09:17:29;12.70;99.90
7648;DHT22;3866;48.020;11.720;2024-01-30T09:19:56;13.40;99.90
7648;DHT22;3866;48.020;11.720;2024-01-30T09:22:23;13.80;99.90
7648;DHT22;3866;48.020;11.720;2024-01-30T09:24:50;13.70;99.90
7648;DHT22;3866;48.020;11.720;2024-01-30T09:27:17;14.00;99.90
7648;DHT22;3866;48.020;11.720;2024-01-30T09:29:42;14.60;99.90
7648;DHT22;3866;48.020;11.720;2024-01-30T09:32:11;14.90;99.90
7648;DHT22;3866;48.020;11.720;2024-01-30T09:34:37;16.60;99.90
7648;DHT22;3866;48.020;11.720;2024-01-30T09:37:05;15.50;99.90
7648;DHT22;3866;48.020;11.720;2024-01-30T09:39:32;14.00;99.90
7648;DHT22;3866;48.020;11.720;2024-01-30T09:42:05;13.60;99.90
7648;DHT22;3866;48.020;11.720;2024-01-30T09:44:35;12.50;99.90
7648;DHT22;3866;48.020;11.720;2024-01-30T09:47:04;12.40;99.90
7648;DHT22;3866;48.020;11.720;2024-01-30T09:49:34;11.70;99.90
7648;DHT22;3866;48.020;11.720;2024-01-30T09:52:01;11.60;99.90
7648;DHT22;3866;48.020;11.720;2024-01-30T09:54:29;11.30;99.90
7648;DHT22;3866;48.020;11.720;2024-01-30T09:56:57;11.30;99.90
7648;DHT22;3866;48.020;11.720;2024-01-30T09:59:24;11.40;99.90
7648;DHT22;3866;48.020;11.720;2024-01-30T10:01:51;11.70;99.90
7648;DHT22;3866;48.020;11.720;2024-01-30T10:04:18;11.60;99.90
7648;DHT22;3866;48.020;11.720;2024-01-30T10:06:46;11.60;99.90
7648;DHT22;3866;48.020;11.720;2024-01-30T10:09:14;11.80;99.90
7648;DHT22;3866;48.020;11.720;2024-01-30T10:11:40;12.10;99.90
7648;DHT22;3866;48.020;11.720;2024-01-30T10:14:07;12.20;99.90
7648;DHT22;3866;48.020;11.720;2024-01-30T10:16:34;12.30;99.90
7648;DHT22;3866;48.020;11.720;2024-01-30T10:19:03;12.50;99.90
7648;DHT22;3866;48.020;11.720;2024-01-30T10:21:30;12.60;99.90
7648;DHT22;3866;48.020;11.720;2024-01-30T10:23:59;12.80;99.90
7648;DHT22;3866;48.020;11.720;2024-01-30T10:26:26;12.90;99.90
7648;DHT22;3866;48.020;11.720;2024-01-30T10:28:55;12.90;99.90
7648;DHT22;3866;48.020;11.720;2024-01-30T10:31:22;13.20;99.90
7648;DHT22;3866;48.020;11.720;2024-01-30T10:33:49;13.20;99.90
7648;DHT22;3866;48.020;11.720;2024-01-30T10:36:17;13.00;99.90
7648;DHT22;3866;48.020;11.720;2024-01-30T10:38:45;13.20;99.90
7648;DHT22;3866;48.020;11.720;2024-01-30T10:41:15;13.30;99.90
7648;DHT22;3866;48.020;11.720;2024-01-30T10:43:52;13.40;99.90
7648;DHT22;3866;48.020;11.720;2024-01-30T10:46:31;13.50;99.90
7648;DHT22;3866;48.020;11.720;2024-01-30T10:48:59;13.60;99.90
7648;DHT22;3866;48.020;11.720;2024-01-30T10:51:28;14.00;99.90
7648;DHT22;3866;48.020;11.720;2024-01-30T10:53:56;14.00;99.90
7648;DHT22;3866;48.020;11.720;2024-01-30T10:56:24;14.30;99.90
7648;DHT22;3866;48.020;11.720;2024-01-30T10:58:52;14.10;99.90
7648;DHT22;3866;48.020;11.720;2024-01-30T11:01:20;14.10;99.90
7648;DHT22;3866;48.020;11.720;2024-01-30T11:03:49;13.80;99.90
7648;DHT22;3866;48.020;11.720;2024-01-30T11:06:16;13.70;99.90
7648;DHT22;3866;48.020;11.720;2024-01-30T11:08:45;13.40;99.90
7648;DHT22;3866;48.020;11.720;2024-01-30T11:11:12;13.30;99.90
7648;DHT22;3866;48.020;11.720;2024-01-30T11:13:40;13.00;99.90
7648;DHT22;3866;48.020;11.720;2024-01-30T11:16:11;13.00;99.90
7648;DHT22;3866;48.020;11.720;2024-01-30T11:18:38;12.50;99.90
7648;DHT22;3866;48.020;11.720;2024-01-30T11:21:05;12.40;99.90
7648;DHT22;3866;48.020;11.720;2024-01-30T11:23:34;12.50;99.90
7648;DHT22;3866;48.020;11.720;2024-01-30T11:26:01;12.30;99.90
7648;DHT22;3866;48.020;11.720;2024-01-30T11:28:32;12.30;99.90
7648;DHT22;3866;48.020;11.720;2024-01-30T11:31:04;12.30;99.90
7648;DHT22;3866;48.020;11.720;2024-01-30T11:33:32;12.20;99.90
7648;DHT22;3866;48.020;11.720;2024-01-30T11:36:00;12.10;99.90
7648;DHT22;3866;48.020;11.720;2024-01-30T11:38:28;12.30;99.90
7648;DHT22;3866;48.020;11.720;2024-01-30T11:40:55;12.40;99.90
7648;DHT22;3866;48.020;11.720;2024-01-30T11:43:22;12.60;99.90
7648;DHT22;3866;48.020;11.720;2024-01-30T11:45:49;12.70;99.90
7648;DHT22;3866;48.020;11.720;2024-01-30T11:48:17;13.10;99.90
7648;DHT22;3866;48.020;11.720;2024-01-30T11:50:45;13.50;99.90
7648;DHT22;3866;48.020;11.720;2024-01-30T11:53:11;13.80;99.90
7648;DHT22;3866;48.020;11.720;2024-01-30T11:55:38;14.40;99.90
7648;DHT22;3866;48.020;11.720;2024-01-30T11:58:05;14.60;99.90
7648;DHT22;3866;48.020;11.720;2024-01-30T12:00:32;14.60;99.90
7648;DHT22;3866;48.020;11.720;2024-01-30T12:03:00;14.60;99.90
7648;DHT22;3866;48.020;11.720;2024-01-30T12:05:29;14.40;99.90
7648;DHT22;3866;48.020;11.720;2024-01-30T12:07:56;14.20;99.90
7648;DHT22;3866;48.020;11.720;2024-01-30T12:10:24;14.50;99.90
7648;DHT22;3866;48.020;11.720;2024-01-30T12:12:52;14.90;99.90
7648;DHT22;3866;48.020;11.720;2024-01-30T12:15:21;14.90;99.90
7648;DHT22;3866;48.020;11.720;2024-01-30T12:17:49;15.00;99.90
7648;DHT22;3866;48.020;11.720;2024-01-30T12:20:18;15.10;99.90
7648;DHT22;3866;48.020;11.720;2024-01-30T12:22:49;15.30;99.90
7648;DHT22;3866;48.020;11.720;2024-01-30T12:25:16;15.40;99.90
7648;DHT22;3866;48.020;11.720;2024-01-30T12:27:45;15.60;99.90
7648;DHT22;3866;48.020;11.720;2024-01-30T12:30:13;15.70;99.90
7648;DHT22;3866;48.020;11.720;2024-01-30T12:32:41;15.30;99.90
7648;DHT22;3866;48.020;11.720;2024-01-30T12:35:10;15.80;99.90
7648;DHT22;3866;48.020;11.720;2024-01-30T12:37:37;16.10;99.90
7648;DHT22;3866;48.020;11.720;2024-01-30T12:40:07;16.40;99.90
7648;DHT22;3866;48.020;11.720;2024-01-30T12:42:34;15.60;99.90
7648;DHT22;3866;48.020;11.720;2024-01-30T12:45:02;14.90;99.90
7648;DHT22;3866;48.020;11.720;2024-01-30T12:47:29;15.00;99.90
7648;DHT22;3866;48.020;11.720;2024-01-30T12:49:57;14.80;99.90
7648;DHT22;3866;48.020;11.720;2024-01-30T12:52:24;14.60;99.90
7648;DHT22;3866;48.020;11.720;2024-01-30T12:54:51;14.40;99.90
7648;DHT22;3866;48.020;11.720;2024-01-30T12:57:19;14.30;99.90
7648;DHT22;3866;48.020;11.720;2024-01-30T12:59:47;14.40;99.90
7648;DHT22;3866;48.020;11.720;2024-01-30T13:02:15;14.70;99.90
7648;DHT22;3866;48.020;11.720;2024-01-30T13:04:42;14.60;99.90
7648;DHT22;3866;48.020;11.720;2024-01-30T13:07:09;14.40;99.90
7648;DHT22;3866;48.020;11.720;2024-01-30T13:09:36;14.30;99.90
7648;DHT22;3866;48.020;11.720;2024-01-30T13:12:04;14.70;99.90
7648;DHT22;3866;48.020;11.720;2024-01-30T13:14:32;14.90;99.90
7648;DHT22;3866;48.020;11.720;2024-01-30T13:16:59;14.80;99.90
7648;DHT22;3866;48.020;11.720;2024-01-30T13:19:26;15.30;99.90
7648;DHT22;3866;48.020;11.720;2024-01-30T13:21:53;15.00;99.90
7648;DHT22;3866;48.020;11.720;2024-01-30T13:24:20;15.30;99.90
7648;DHT22;3866;48.020;11.720;2024-01-30T13:26:47;15.40;99.90
7648;DHT22;3866;48.020;11.720;2024-01-30T13:29:14;15.70;99.90
7648;DHT22;3866;48.020;11.720;2024-01-30T13:31:42;15.80;99.90
7648;DHT22;3866;48.020;11.720;2024-01-30T13:34:09;15.60;99.90
7648;DHT22;3866;48.020;11.720;2024-01-30T13:36:36;15.70;99.90
7648;DHT22;3866;48.020;11.720;2024-01-30T13:39:03;15.60;99.90
7648;DHT22;3866;48.020;11.720;2024-01-30T13:41:35;16.00;99.90
7648;DHT22;3866;48.020;11.720;2024-01-30T13:44:02;16.50;99.90
7648;DHT22;3866;48.020;11.720;2024-01-30T13:46:30;16.70;99.90
7648;DHT22;3866;48.020;11.720;2024-01-30T13:48:58;16.80;99.90
7648;DHT22;3866;48.020;11.720;2024-01-30T13:51:25;17.40;99.90
7648;DHT22;3866;48.020;11.720;2024-01-30T13:53:52;18.00;99.90
7648;DHT22;3866;48.020;11.720;2024-01-30T13:56:19;18.40;99.90
7648;DHT22;3866;48.020;11.720;2024-01-30T13:58:47;18.50;99.60
7648;DHT22;3866;48.020;11.720;2024-01-30T14:01:14;18.90;99.10
7648;DHT22;3866;48.020;11.720;2024-01-30T14:03:41;19.30;97.90
7648;DHT22;3866;48.020;11.720;2024-01-30T14:06:09;19.20;97.60
7648;DHT22;3866;48.020;11.720;2024-01-30T14:08:36;18.70;97.40
7648;DHT22;3866;48.020;11.720;2024-01-30T14:11:03;17.70;98.70
7648;DHT22;3866;48.020;11.720;2024-01-30T14:13:30;17.40;99.60
7648;DHT22;3866;48.020;11.720;2024-01-30T14:15:58;17.60;98.90
7648;DHT22;3866;48.020;11.720;2024-01-30T14:18:25;17.50;99.10
7648;DHT22;3866;48.020;11.720;2024-01-30T14:20:52;17.40;98.80
7648;DHT22;3866;48.020;11.720;2024-01-30T14:23:21;16.80;99.10
7648;DHT22;3866;48.020;11.720;2024-01-30T14:25:48;16.90;98.80
7648;DHT22;3866;48.020;11.720;2024-01-30T14:28:17;16.30;99.70
7648;DHT22;3866;48.020;11.720;2024-01-30T14:30:44;16.70;99.40
7648;DHT22;3866;48.020;11.720;2024-01-30T14:33:10;16.60;99.90
7648;DHT22;3866;48.020;11.720;2024-01-30T14:35:38;17.20;99.40
7648;DHT22;3866;48.020;11.720;2024-01-30T14:38:05;17.10;99.10
7648;DHT22;3866;48.020;11.720;2024-01-30T14:40:34;16.70;99.10
7648;DHT22;3866;48.020;11.720;2024-01-30T14:43:02;15.90;99.90
7648;DHT22;3866;48.020;11.720;2024-01-30T14:45:29;15.30;99.90
7648;DHT22;3866;48.020;11.720;2024-01-30T14:47:57;15.40;99.90
7648;DHT22;3866;48.020;11.720;2024-01-30T14:50:24;15.00;99.90
7648;DHT22;3866;48.020;11.720;2024-01-30T14:52:51;15.20;99.90
7648;DHT22;3866;48.020;11.720;2024-01-30T14:55:18;15.20;99.90
7648;DHT22;3866;48.020;11.720;2024-01-30T14:57:46;15.30;99.90
7648;DHT22;3866;48.020;11.720;2024-01-30T15:00:15;15.60;99.90
7648;DHT22;3866;48.020;11.720;2024-01-30T15:02:42;15.70;99.90
7648;DHT22;3866;48.020;11.720;2024-01-30T15:05:09;15.70;99.90
7648;DHT22;3866;48.020;11.720;2024-01-30T15:07:37;15.60;99.90
7648;DHT22;3866;48.020;11.720;2024-01-30T15:10:04;15.60;99.90
7648;DHT22;3866;48.020;11.720;2024-01-30T15:12:31;15.50;99.90
7648;DHT22;3866;48.020;11.720;2024-01-30T15:14:59;15.50;99.90
7648;DHT22;3866;48.020;11.720;2024-01-30T15:17:26;15.30;99.90
7648;DHT22;3866;48.020;11.720;2024-01-30T15:19:53;14.90;99.90
7648;DHT22;3866;48.020;11.720;2024-01-30T15:22:20;14.70;99.90
7648;DHT22;3866;48.020;11.720;2024-01-30T15:24:47;14.30;99.90
7648;DHT22;3866;48.020;11.720;2024-01-30T15:27:14;14.10;99.90
7648;DHT22;3866;48.020;11.720;2024-01-30T15:29:41;13.70;99.90
7648;DHT22;3866;48.020;11.720;2024-01-30T15:32:09;13.30;99.90
7648;DHT22;3866;48.020;11.720;2024-01-30T15:34:36;12.90;99.90
7648;DHT22;3866;48.020;11.720;2024-01-30T15:37:03;12.60;99.90
7648;DHT22;3866;48.020;11.720;2024-01-30T15:39:30;12.30;99.90
7648;DHT22;3866;48.020;11.720;2024-01-30T15:41:57;12.10;99.90
7648;DHT22;3866;48.020;11.720;2024-01-30T15:44:24;11.90;99.90
7648;DHT22;3866;48.020;11.720;2024-01-30T15:46:51;11.90;99.90